METAR AND TAF INFORMATION
METAR FOR LEBZ
ADDS - METARS form results

(0211 UTC 21 April 2018)
Data provider http://aviationweather.gov/adds/metars/
 
Forecast for: LEBZ (TALAVERA AB/BADA, ES)
Text: TAF LEBZ 202300Z 2100/2124 VRB04KT 9999 FEW030 TX24/2115Z TN13/2106Z
Forecast period: 0000 UTC 21 April 2018 to 0000 UTC 22 April 2018
Forecast type: FROM: standard forecast or significant change
Winds: variable direction winds at 5 MPH (4 knots; 2.1 m/s)
Visibility: 6 or more miles (10+ km)
Clouds: few clouds at 3000 feet AGL
Weather: no significant weather forecast for this period
Forecast for: LEBZ (TALAVERA AB/BADA, ES)
Text: TAF LEBZ 202300Z 2100/2124 VRB04KT 9999 FEW030 TX24/2115Z TN13/2106Z
Forecast period: 0000 UTC 21 April 2018 to 0000 UTC 22 April 2018
Forecast type: FROM: standard forecast or significant change
Winds: variable direction winds at 5 MPH (4 knots; 2.1 m/s)
Visibility: 6 or more miles (10+ km)
Clouds: few clouds at 3000 feet AGL
Weather: no significant weather forecast for this period
Forecast for: LEBZ (TALAVERA AB/BADA, ES)
Text: TAF LEBZ 202300Z 2100/2124 VRB04KT 9999 FEW030 TX24/2115Z TN13/2106Z
Forecast period: 0000 UTC 21 April 2018 to 0000 UTC 22 April 2018
Forecast type: BECOMING: Conditions expected to become as follows by 0300 UTC 21 April 2018
Winds: from the ENE (70 degrees) at 12 MPH (10 knots; 5.2 m/s)
Visibility: 6 or more miles (10+ km)
Clouds: few clouds at 3000 feet AGL
Weather: no significant weather forecast for this period
Forecast for: LEBZ (TALAVERA AB/BADA, ES)
Text: TAF LEBZ 202300Z 2100/2124 VRB04KT 9999 FEW030 TX24/2115Z TN13/2106Z
Forecast period: 0000 UTC 21 April 2018 to 0000 UTC 22 April 2018
Forecast type: BECOMING: Conditions expected to become as follows by 0300 UTC 21 April 2018
Winds: from the ENE (70 degrees) at 12 MPH (10 knots; 5.2 m/s)
Visibility: 6 or more miles (10+ km)
Clouds: few clouds at 3000 feet AGL
Weather: no significant weather forecast for this period
Forecast for: LEBZ (TALAVERA AB/BADA, ES)
Text: TAF LEBZ 202300Z 2100/2124 VRB04KT 9999 FEW030 TX24/2115Z TN13/2106Z
Forecast period: 0000 to 0600 UTC 21 April 2018
Forecast type: TEMPORARY: The following changes expected for less than half the time period
Visibility: 2.49 miles (4.01 km)
Clouds: scattered clouds at 2500 feet AGL
scattered clouds at 4000 feet AGL
Weather: SHRA  (rain showers)
Forecast for: LEBZ (TALAVERA AB/BADA, ES)
Text: TAF LEBZ 202300Z 2100/2124 VRB04KT 9999 FEW030 TX24/2115Z TN13/2106Z
Forecast period: 0000 to 0600 UTC 21 April 2018
Forecast type: TEMPORARY: The following changes expected for less than half the time period
Visibility: 2.49 miles (4.01 km)
Clouds: scattered clouds at 2500 feet AGL
scattered clouds at 4000 feet AGL
Weather: SHRA  (rain showers)
Forecast for: LEBZ (TALAVERA AB/BADA, ES)
Text: TAF LEBZ 202300Z 2100/2124 VRB04KT 9999 FEW030 TX24/2115Z TN13/2106Z
Forecast period: 0000 to 0600 UTC 21 April 2018
Forecast type: TEMPORARY: The following changes expected for less than half the time period
Visibility: 1.86 miles (2.99 km)
Clouds: scattered clouds at 2500 feet AGL
Weather: TS  (thunderstorm)
Forecast for: LEBZ (TALAVERA AB/BADA, ES)
Text: TAF LEBZ 202300Z 2100/2124 VRB04KT 9999 FEW030 TX24/2115Z TN13/2106Z
Forecast period: 0000 to 0600 UTC 21 April 2018
Forecast type: TEMPORARY: The following changes expected for less than half the time period
Visibility: 1.86 miles (2.99 km)
Clouds: scattered clouds at 2500 feet AGL
Weather: TS  (thunderstorm)

 AIRPORT MAP

 RUNWAY INFORMATION
Runway 13 Runway length 9350 ft Runway width 197 ft
Runway elevation 579 ft Runway displaced threshold 0 ft Runway heading 126
Runway 31 Runway length 9350 ft Runway width 197 ft
Runway elevation 609 ft Runway displaced threshold 0 ft Runway heading 306

 AIRPORT FREQUENCIES
Type APP Name APP Frequency 139.3 MHZ
Type TWR Name BADAJOZ TW Frequency 122.1 MHZ

 AIRPORT NEAR NAVIGATION AIDS
Type NDB Name Badajoz Frequency 298 KHZ
Type TACAN Name Talavera Frequency 108800 KHZ
Type VOR-DME Name Badajoz Frequency 116800 KHZ




Powered by Virtual Airlines Manager